createdAt,value
2017-06-14T00:00:11.575Z,16.16
2017-06-14T00:00:39.913Z,16.17
2017-06-14T00:01:51.083Z,16.16
2017-06-14T00:02:20.038Z,16.14
2017-06-14T00:02:48.193Z,16.21
2017-06-14T00:03:16.429Z,16.13
2017-06-14T00:03:44.696Z,16.09
2017-06-14T00:04:12.920Z,16.05
2017-06-14T00:04:41.085Z,16.1
2017-06-14T00:05:09.224Z,16.18
2017-06-14T00:05:37.483Z,16.17
2017-06-14T00:06:05.855Z,16.06
2017-06-14T00:06:34.203Z,16.06
2017-06-14T00:07:45.539Z,16.05
2017-06-14T00:08:13.851Z,16.13
2017-06-14T00:08:42.123Z,16.08
2017-06-14T00:09:10.357Z,16.08
2017-06-14T00:09:38.625Z,16.22
2017-06-14T00:10:06.661Z,16.17
2017-06-14T00:10:34.749Z,16.1
2017-06-14T00:11:02.838Z,16.14
2017-06-14T00:11:31.084Z,16.16
2017-06-14T00:11:59.427Z,16.17
2017-06-14T00:12:27.773Z,16.09
2017-06-14T00:13:39.126Z,16.14
2017-06-14T00:14:07.246Z,16.16
2017-06-14T00:14:35.601Z,16.09
2017-06-14T00:15:03.921Z,16.1
2017-06-14T00:15:32.202Z,16.17
2017-06-14T00:16:00.238Z,16.17
2017-06-14T00:16:28.499Z,16.17
2017-06-14T00:16:56.658Z,16.13
2017-06-14T00:17:25.024Z,16.17
2017-06-14T00:17:53.296Z,16.09
2017-06-14T00:18:21.545Z,16.17
2017-06-14T00:19:32.879Z,16.21
2017-06-14T00:20:01.075Z,16.06
2017-06-14T00:20:29.298Z,16.16
2017-06-14T00:20:57.606Z,16.06
2017-06-14T00:21:25.868Z,16.14
2017-06-14T00:21:54.095Z,16.13
2017-06-14T00:22:22.252Z,16.08
2017-06-14T00:22:50.418Z,16.17
2017-06-14T00:23:18.677Z,16.18
2017-06-14T00:23:46.943Z,16.14
2017-06-14T00:24:15.278Z,16.22
2017-06-14T00:25:26.511Z,16.18
2017-06-14T00:25:54.805Z,16.08
2017-06-14T00:26:23.047Z,16.13
2017-06-14T00:26:51.176Z,16.09
2017-06-14T00:27:19.359Z,16.13
2017-06-14T00:27:47.583Z,16.05
2017-06-14T00:28:15.563Z,16.18
2017-06-14T00:28:43.720Z,16.16
2017-06-14T00:29:12.836Z,16.14
2017-06-14T00:29:41.189Z,16.14
2017-06-14T00:30:09.440Z,16.02
2017-06-14T00:31:20.774Z,16.13
2017-06-14T00:31:49.070Z,16.1
2017-06-14T00:32:17.363Z,16.14
2017-06-14T00:32:45.562Z,16.08
2017-06-14T00:33:13.726Z,16.05
2017-06-14T00:33:41.762Z,16.16
2017-06-14T00:34:09.734Z,16.14
2017-06-14T00:34:37.980Z,16.13
2017-06-14T00:35:06.333Z,16.13
2017-06-14T00:35:34.582Z,16.13
2017-06-14T00:36:02.830Z,16.17
2017-06-14T00:37:14.180Z,15.99
2017-06-14T00:37:42.373Z,16.18
2017-06-14T00:38:10.525Z,16.14
2017-06-14T00:38:38.850Z,16.1
2017-06-14T00:39:07.124Z,16.14
2017-06-14T00:39:35.258Z,16.1
2017-06-14T00:40:03.516Z,16.17
2017-06-14T00:40:31.558Z,16.14
2017-06-14T00:40:59.912Z,16.14
2017-06-14T00:41:28.173Z,16.1
2017-06-14T00:41:56.517Z,16.16
2017-06-14T00:43:07.742Z,16.16
2017-06-14T00:43:35.934Z,16.14
2017-06-14T00:44:04.250Z,16.1
2017-06-14T00:44:32.554Z,16.14
2017-06-14T00:45:00.818Z,16.13
2017-06-14T00:45:28.948Z,16.09
2017-06-14T00:45:57.106Z,16.17
2017-06-14T00:46:25.395Z,16.16
2017-06-14T00:46:53.657Z,16.14
2017-06-14T00:47:21.991Z,16.13
2017-06-14T00:47:50.241Z,16.14
2017-06-14T00:49:01.562Z,16.09
2017-06-14T00:49:29.872Z,16.06
2017-06-14T00:49:58.200Z,16.13
2017-06-14T00:50:26.315Z,16.17
2017-06-14T00:50:55.236Z,16.16
2017-06-14T00:51:23.368Z,16.1
2017-06-14T00:51:51.619Z,16.09
2017-06-14T00:52:19.690Z,16.16
2017-06-14T00:52:47.958Z,16.17
2017-06-14T00:53:16.213Z,16.14
2017-06-14T00:53:44.369Z,16.17
2017-06-14T00:54:55.612Z,16.17
2017-06-14T00:55:23.922Z,16.17
2017-06-14T00:55:52.259Z,16.1
2017-06-14T00:56:20.488Z,16.22
2017-06-14T00:56:48.761Z,16.08
2017-06-14T00:57:16.895Z,16.14
2017-06-14T00:57:45.156Z,16.14
2017-06-14T00:58:13.121Z,16.16
2017-06-14T00:58:41.395Z,16.09
2017-06-14T00:59:09.753Z,16.13
2017-06-14T00:59:38.102Z,16.1
2017-06-14T01:00:49.257Z,16.05
2017-06-14T01:01:17.560Z,16.13
2017-06-14T01:01:45.876Z,16.16
2017-06-14T01:02:14.187Z,16.1
2017-06-14T01:02:42.455Z,16.14
2017-06-14T01:03:10.590Z,16.03
2017-06-14T01:03:38.661Z,16.17
2017-06-14T01:04:06.730Z,16.24
2017-06-14T01:04:34.987Z,16.09
2017-06-14T01:05:03.225Z,16.14
2017-06-14T01:05:31.383Z,16.17
2017-06-14T01:06:42.703Z,16.16
2017-06-14T01:07:10.999Z,16.16
2017-06-14T01:07:39.241Z,16.1
2017-06-14T01:08:07.557Z,16.13
2017-06-14T01:08:35.751Z,16.16
2017-06-14T01:09:03.785Z,16.09
2017-06-14T01:09:31.860Z,16.09
2017-06-14T01:09:59.907Z,16.22
2017-06-14T01:10:28.152Z,16.08
2017-06-14T01:10:56.492Z,16.16
2017-06-14T01:11:24.652Z,16.1
2017-06-14T01:12:35.981Z,16.17
2017-06-14T01:13:04.308Z,16.09
2017-06-14T01:13:32.672Z,16.08
2017-06-14T01:14:00.997Z,16.13
2017-06-14T01:14:29.266Z,16.08
2017-06-14T01:14:57.405Z,16.08
2017-06-14T01:15:25.482Z,16.17
2017-06-14T01:15:53.653Z,16.14
2017-06-14T01:16:22.023Z,16.16
2017-06-14T01:16:50.376Z,16.09
2017-06-14T01:17:18.632Z,16.13
2017-06-14T01:18:29.791Z,16.13
2017-06-14T01:18:58.100Z,16.22
2017-06-14T01:19:26.456Z,16.18
2017-06-14T01:19:54.776Z,16.18
2017-06-14T01:20:23.037Z,16.09
2017-06-14T01:20:51.262Z,16.18
2017-06-14T01:21:19.425Z,16.08
2017-06-14T01:21:47.662Z,16.05
2017-06-14T01:22:15.848Z,16.13
2017-06-14T01:22:44.206Z,16.16
2017-06-14T01:23:12.550Z,16.17
2017-06-14T01:24:23.780Z,16.17
2017-06-14T01:24:52.005Z,16.16
2017-06-14T01:25:20.349Z,16.21
2017-06-14T01:25:48.595Z,16.08
2017-06-14T01:26:16.874Z,16.1
2017-06-14T01:26:45.101Z,16.13
2017-06-14T01:27:13.271Z,16.17
2017-06-14T01:27:41.526Z,16.16
2017-06-14T01:28:09.875Z,16.17
2017-06-14T01:28:38.271Z,16.06
2017-06-14T01:29:06.428Z,16.18
2017-06-14T01:30:17.781Z,16.13
2017-06-14T01:30:46.080Z,16.21
2017-06-14T01:31:14.448Z,16.09
2017-06-14T01:31:42.801Z,16.17
2017-06-14T01:32:11.071Z,16.16
2017-06-14T01:32:39.212Z,16.1
2017-06-14T01:33:07.377Z,16.18
2017-06-14T01:33:35.543Z,16.17
2017-06-14T01:34:03.889Z,16.21
2017-06-14T01:34:32.166Z,16.13
2017-06-14T01:35:00.505Z,16.03
2017-06-14T01:36:11.837Z,16.16
2017-06-14T01:36:40.150Z,16.13
2017-06-14T01:37:08.849Z,16.17
2017-06-14T01:37:37.162Z,16.1
2017-06-14T01:38:05.435Z,16.17
2017-06-14T01:38:33.572Z,16.14
2017-06-14T01:39:01.734Z,16.17
2017-06-14T01:39:29.895Z,16.18
2017-06-14T01:39:58.240Z,16.18
2017-06-14T01:40:26.412Z,16.25
2017-06-14T01:40:54.665Z,16.21
2017-06-14T01:42:05.946Z,16.24
2017-06-14T01:42:34.262Z,16.18
2017-06-14T01:43:02.616Z,16.18
2017-06-14T01:43:30.752Z,16.18
2017-06-14T01:43:58.973Z,16.14
2017-06-14T01:44:27.030Z,16.16
2017-06-14T01:44:55.195Z,16.1
2017-06-14T01:45:23.347Z,16.17
2017-06-14T01:45:51.715Z,16.08
2017-06-14T01:46:20.076Z,16.06
2017-06-14T01:46:48.438Z,16.06
2017-06-14T01:47:59.700Z,16.13
2017-06-14T01:48:28.005Z,16.13
2017-06-14T01:48:56.264Z,16.18
2017-06-14T01:49:24.599Z,16.08
2017-06-14T01:49:52.866Z,16.14
2017-06-14T01:50:21.093Z,16.17
2017-06-14T01:50:49.260Z,16.14
2017-06-14T01:51:17.538Z,16.1
2017-06-14T01:51:45.929Z,16.16
2017-06-14T01:52:14.197Z,16.1
2017-06-14T01:52:42.449Z,16.18
2017-06-14T01:53:53.811Z,16.13
2017-06-14T01:54:22.019Z,16.21
2017-06-14T01:54:50.277Z,16.21
2017-06-14T01:55:18.502Z,16.16
2017-06-14T01:55:46.781Z,16.08
2017-06-14T01:56:14.821Z,16.08
2017-06-14T01:56:42.986Z,16.26
2017-06-14T01:57:11.146Z,16.13
2017-06-14T01:57:39.296Z,16.05
2017-06-14T01:58:07.639Z,16.34
2017-06-14T01:58:35.798Z,16.17
2017-06-14T01:59:47.116Z,16.05
2017-06-14T02:00:15.316Z,16.22
2017-06-14T02:00:43.556Z,16.06
2017-06-14T02:01:11.855Z,16.14
2017-06-14T02:01:40.024Z,16.16
2017-06-14T02:02:08.259Z,16.16
2017-06-14T02:02:36.517Z,16.17
2017-06-14T02:03:04.741Z,16.17
2017-06-14T02:03:33.104Z,16.13
2017-06-14T02:04:01.803Z,16.1
2017-06-14T02:04:30.049Z,16.17
2017-06-14T02:05:41.395Z,16.09
2017-06-14T02:06:09.703Z,16.05
2017-06-14T02:06:38.042Z,15.98
2017-06-14T02:07:06.354Z,16.03
2017-06-14T02:07:34.624Z,16.02
2017-06-14T02:08:02.869Z,16
2017-06-14T02:08:31.037Z,16.02
2017-06-14T02:08:59.172Z,16.02
2017-06-14T02:09:27.326Z,15.99
2017-06-14T02:09:55.664Z,16.02
2017-06-14T02:10:24.011Z,15.99
2017-06-14T02:11:35.237Z,16.08
2017-06-14T02:12:03.520Z,16.08
2017-06-14T02:12:31.751Z,16.02
2017-06-14T02:13:00.064Z,16.03
2017-06-14T02:13:28.236Z,16.02
2017-06-14T02:13:56.372Z,15.99
2017-06-14T02:14:24.636Z,15.98
2017-06-14T02:14:52.873Z,15.99
2017-06-14T02:15:21.220Z,16.02
2017-06-14T02:15:49.575Z,16.02
2017-06-14T02:16:17.820Z,16.02
2017-06-14T02:17:29.053Z,16.03
2017-06-14T02:17:57.249Z,15.99
2017-06-14T02:18:25.561Z,16
2017-06-14T02:18:53.861Z,16.05
2017-06-14T02:19:22.132Z,16.08
2017-06-14T02:19:50.268Z,16
2017-06-14T02:20:18.433Z,15.93
2017-06-14T02:20:46.578Z,15.99
2017-06-14T02:21:14.834Z,16
2017-06-14T02:21:43.079Z,15.96
2017-06-14T02:22:11.424Z,16
2017-06-14T02:23:22.753Z,15.91
2017-06-14T02:23:51.045Z,15.88
2017-06-14T02:24:19.259Z,15.87
2017-06-14T02:24:47.559Z,15.81
2017-06-14T02:25:15.829Z,15.81
2017-06-14T02:25:43.965Z,15.87
2017-06-14T02:26:12.136Z,15.85
2017-06-14T02:26:40.370Z,15.85
2017-06-14T02:27:08.625Z,15.87
2017-06-14T02:27:36.965Z,15.84
2017-06-14T02:28:05.218Z,15.84
2017-06-14T02:29:16.546Z,15.83
2017-06-14T02:29:44.829Z,15.84
2017-06-14T02:30:13.141Z,15.85
2017-06-14T02:30:41.346Z,15.88
2017-06-14T02:31:09.605Z,15.84
2017-06-14T02:31:37.738Z,15.85
2017-06-14T02:32:05.906Z,15.85
2017-06-14T02:32:34.037Z,15.93
2017-06-14T02:33:02.403Z,15.91
2017-06-14T02:33:30.773Z,15.87
2017-06-14T02:33:59.119Z,15.95
2017-06-14T02:35:10.438Z,15.96
2017-06-14T02:35:38.726Z,15.93
2017-06-14T02:36:06.944Z,15.91
2017-06-14T02:36:35.242Z,15.88
2017-06-14T02:37:03.507Z,15.93
2017-06-14T02:37:31.742Z,15.91
2017-06-14T02:37:59.909Z,15.9
2017-06-14T02:38:28.091Z,15.99
2017-06-14T02:38:56.338Z,15.9
2017-06-14T02:39:24.672Z,15.88
2017-06-14T02:39:53.017Z,15.95
2017-06-14T02:41:04.337Z,15.93
2017-06-14T02:41:32.618Z,15.88
2017-06-14T02:42:00.834Z,15.88
2017-06-14T02:42:29.131Z,15.96
2017-06-14T02:42:57.396Z,15.9
2017-06-14T02:43:25.529Z,15.93
2017-06-14T02:43:53.513Z,15.93
2017-06-14T02:44:21.743Z,15.88
2017-06-14T02:44:49.994Z,15.9
2017-06-14T02:45:18.142Z,15.93
2017-06-14T02:45:46.396Z,15.93
2017-06-14T02:46:57.721Z,15.9
2017-06-14T02:47:26.009Z,15.95
2017-06-14T02:47:54.326Z,15.87
2017-06-14T02:48:22.630Z,15.91
2017-06-14T02:48:50.894Z,15.95
2017-06-14T02:49:19.122Z,15.96
2017-06-14T02:49:47.293Z,15.88
2017-06-14T02:50:15.430Z,15.88
2017-06-14T02:50:43.762Z,15.96
2017-06-14T02:51:12.096Z,15.93
2017-06-14T02:51:40.252Z,15.9
2017-06-14T02:52:51.479Z,15.87
2017-06-14T02:53:19.762Z,15.93
2017-06-14T02:53:48.080Z,15.93
2017-06-14T02:54:16.273Z,15.91
2017-06-14T02:54:44.535Z,15.93
2017-06-14T02:55:12.876Z,15.9
2017-06-14T02:55:41.132Z,15.88
2017-06-14T02:56:09.361Z,15.93
2017-06-14T02:56:37.611Z,15.98
2017-06-14T02:57:05.948Z,15.85
2017-06-14T02:57:34.289Z,15.91
2017-06-14T02:58:45.612Z,15.85
2017-06-14T02:59:13.892Z,15.85
2017-06-14T02:59:42.200Z,15.83
2017-06-14T03:00:10.495Z,15.85
2017-06-14T03:00:38.754Z,15.84
2017-06-14T03:01:06.982Z,15.9
2017-06-14T03:01:35.242Z,15.81
2017-06-14T03:02:03.375Z,15.88
2017-06-14T03:02:31.627Z,15.87
2017-06-14T03:02:59.875Z,15.87
2017-06-14T03:03:28.127Z,15.88
2017-06-14T03:04:39.447Z,15.84
2017-06-14T03:05:07.728Z,15.84
2017-06-14T03:05:36.036Z,15.9
2017-06-14T03:06:04.237Z,15.93
2017-06-14T03:06:32.306Z,15.85
2017-06-14T03:07:00.538Z,15.85
2017-06-14T03:07:28.706Z,15.83
2017-06-14T03:07:56.840Z,15.84
2017-06-14T03:08:25.184Z,15.81
2017-06-14T03:08:53.517Z,15.84
2017-06-14T03:09:21.861Z,15.85
2017-06-14T03:10:33.084Z,15.84
2017-06-14T03:11:01.273Z,15.84
2017-06-14T03:11:29.610Z,15.93
2017-06-14T03:11:57.789Z,15.83
2017-06-14T03:12:26.048Z,15.87
2017-06-14T03:12:54.275Z,15.83
2017-06-14T03:13:22.539Z,15.87
2017-06-14T03:13:50.675Z,15.85
2017-06-14T03:14:18.916Z,15.83
2017-06-14T03:14:47.157Z,15.85
2017-06-14T03:15:15.409Z,15.84
2017-06-14T03:16:26.724Z,15.81
2017-06-14T03:16:55.009Z,15.81
2017-06-14T03:17:23.329Z,15.78
2017-06-14T03:17:51.617Z,15.81
2017-06-14T03:18:19.788Z,15.85
2017-06-14T03:18:48.011Z,15.87
2017-06-14T03:19:16.081Z,15.83
2017-06-14T03:19:44.122Z,15.83
2017-06-14T03:20:12.463Z,15.84
2017-06-14T03:20:40.801Z,15.8
2017-06-14T03:21:09.049Z,15.85
2017-06-14T03:22:20.276Z,15.81
2017-06-14T03:22:48.561Z,15.83
2017-06-14T03:23:16.865Z,15.88
2017-06-14T03:23:45.064Z,15.84
2017-06-14T03:24:13.326Z,15.83
2017-06-14T03:24:41.460Z,15.84
2017-06-14T03:25:09.717Z,15.83
2017-06-14T03:25:37.946Z,15.87
2017-06-14T03:26:06.189Z,15.95
2017-06-14T03:26:34.524Z,15.95
2017-06-14T03:27:02.774Z,15.9
2017-06-14T03:28:14.009Z,15.95
2017-06-14T03:28:42.186Z,15.95
2017-06-14T03:29:10.396Z,15.88
2017-06-14T03:29:38.694Z,15.91
2017-06-14T03:30:06.947Z,15.91
2017-06-14T03:30:34.987Z,15.87
2017-06-14T03:31:03.149Z,15.91
2017-06-14T03:31:31.185Z,15.96
2017-06-14T03:31:59.528Z,15.95
2017-06-14T03:32:27.772Z,15.96
2017-06-14T03:32:56.116Z,15.95
2017-06-14T03:34:07.432Z,15.98
2017-06-14T03:34:35.615Z,16.03
2017-06-14T03:35:03.925Z,15.99
2017-06-14T03:35:32.124Z,15.95
2017-06-14T03:36:00.290Z,15.87
2017-06-14T03:36:28.421Z,15.98
2017-06-14T03:36:56.583Z,15.9
2017-06-14T03:37:24.711Z,15.91
2017-06-14T03:37:53.051Z,15.87
2017-06-14T03:38:21.293Z,15.95
2017-06-14T03:38:49.634Z,15.91
2017-06-14T03:40:00.954Z,15.9
2017-06-14T03:40:29.138Z,15.96
2017-06-14T03:40:57.263Z,15.87
2017-06-14T03:41:25.557Z,15.95
2017-06-14T03:41:53.810Z,15.91
2017-06-14T03:42:21.856Z,15.91
2017-06-14T03:42:50.014Z,15.96
2017-06-14T03:43:18.046Z,15.95
2017-06-14T03:43:46.382Z,15.95
2017-06-14T03:44:14.714Z,15.91
2017-06-14T03:44:43.056Z,15.95
2017-06-14T03:45:54.279Z,15.91
2017-06-14T03:46:22.467Z,15.9
2017-06-14T03:46:50.489Z,15.9
2017-06-14T03:47:18.779Z,15.95
2017-06-14T03:47:46.946Z,15.9
2017-06-14T03:48:15.078Z,15.87
2017-06-14T03:48:43.238Z,15.88
2017-06-14T03:49:11.183Z,15.91
2017-06-14T03:49:39.425Z,15.95
2017-06-14T03:50:07.808Z,15.95
2017-06-14T03:50:36.149Z,15.91
2017-06-14T03:51:47.462Z,15.87
2017-06-14T03:52:15.642Z,15.9
2017-06-14T03:52:43.949Z,15.9
2017-06-14T03:53:12.243Z,15.83
2017-06-14T03:53:40.493Z,15.81
2017-06-14T03:54:08.714Z,15.78
2017-06-14T03:54:36.689Z,15.8
2017-06-14T03:55:04.912Z,15.77
2017-06-14T03:55:33.247Z,15.8
2017-06-14T03:56:01.490Z,15.76
2017-06-14T03:56:29.647Z,15.73
2017-06-14T03:57:40.872Z,15.76
2017-06-14T03:58:09.151Z,15.8
2017-06-14T03:58:37.273Z,15.8
2017-06-14T03:59:05.473Z,15.83
2017-06-14T03:59:33.641Z,15.87
2017-06-14T04:00:01.776Z,15.83
2017-06-14T04:00:29.935Z,15.85
2017-06-14T04:00:58.066Z,15.8
2017-06-14T04:01:26.403Z,15.8
2017-06-14T04:01:54.552Z,15.84
2017-06-14T04:02:22.894Z,15.83
2017-06-14T04:03:34.211Z,15.76
2017-06-14T04:04:02.491Z,15.8
2017-06-14T04:04:30.742Z,15.73
2017-06-14T04:04:59.019Z,15.78
2017-06-14T04:05:27.178Z,15.77
2017-06-14T04:05:55.405Z,15.68
2017-06-14T04:06:23.564Z,15.77
2017-06-14T04:06:51.806Z,15.76
2017-06-14T04:07:19.937Z,15.76
2017-06-14T04:07:48.170Z,15.72
2017-06-14T04:08:16.503Z,15.8
2017-06-14T04:09:27.724Z,15.7
2017-06-14T04:09:55.894Z,15.78
2017-06-14T04:10:24.216Z,15.76
2017-06-14T04:10:52.511Z,15.78
2017-06-14T04:11:20.605Z,15.77
2017-06-14T04:11:48.829Z,15.78
2017-06-14T04:12:17.129Z,15.72
2017-06-14T04:12:45.395Z,15.72
2017-06-14T04:13:13.708Z,15.73
2017-06-14T04:13:41.938Z,15.69
2017-06-14T04:14:10.192Z,15.76
2017-06-14T04:15:21.512Z,15.78
2017-06-14T04:15:49.791Z,15.8
2017-06-14T04:16:18.107Z,15.73
2017-06-14T04:16:46.402Z,15.76
2017-06-14T04:17:14.688Z,15.7
2017-06-14T04:17:42.913Z,15.77
2017-06-14T04:18:10.984Z,15.8
2017-06-14T04:18:39.035Z,15.73
2017-06-14T04:19:07.347Z,15.77
2017-06-14T04:19:35.672Z,15.78
2017-06-14T04:20:04.006Z,15.7
2017-06-14T04:21:15.132Z,15.76
2017-06-14T04:21:43.321Z,15.73
2017-06-14T04:22:11.547Z,15.8
2017-06-14T04:22:39.848Z,15.73
2017-06-14T04:23:08.137Z,15.81
2017-06-14T04:23:36.268Z,15.73
2017-06-14T04:24:04.574Z,15.76
2017-06-14T04:24:32.833Z,15.78
2017-06-14T04:25:01.146Z,15.8
2017-06-14T04:25:29.377Z,15.77
2017-06-14T04:25:57.708Z,15.78
2017-06-14T04:27:08.836Z,15.76
2017-06-14T04:27:37.024Z,15.78
2017-06-14T04:28:05.341Z,15.73
2017-06-14T04:28:33.636Z,15.76
2017-06-14T04:29:01.826Z,15.76
2017-06-14T04:29:29.962Z,15.76
2017-06-14T04:29:58.174Z,15.76
2017-06-14T04:30:26.433Z,15.73
2017-06-14T04:30:54.738Z,15.76
2017-06-14T04:31:23.068Z,15.78
2017-06-14T04:31:51.412Z,15.8
2017-06-14T04:33:02.735Z,15.72
2017-06-14T04:33:30.925Z,15.7
2017-06-14T04:33:59.242Z,15.72
2017-06-14T04:34:27.539Z,15.76
2017-06-14T04:34:55.728Z,15.73
2017-06-14T04:35:23.957Z,15.73
2017-06-14T04:35:52.264Z,15.7
2017-06-14T04:36:20.528Z,15.69
2017-06-14T04:36:48.750Z,15.72
2017-06-14T04:37:16.986Z,15.68
2017-06-14T04:37:45.234Z,15.69
2017-06-14T04:38:56.459Z,15.63
2017-06-14T04:39:24.740Z,15.65
2017-06-14T04:39:53.058Z,15.7
2017-06-14T04:40:21.357Z,15.68
2017-06-14T04:40:49.643Z,15.56
2017-06-14T04:41:17.774Z,15.58
2017-06-14T04:41:46.077Z,15.54
2017-06-14T04:42:14.245Z,15.54
2017-06-14T04:42:42.458Z,15.56
2017-06-14T04:43:10.787Z,15.56
2017-06-14T04:43:39.136Z,15.56
2017-06-14T04:44:50.352Z,15.6
2017-06-14T04:45:18.536Z,15.56
2017-06-14T04:45:46.762Z,15.54
2017-06-14T04:46:14.775Z,15.54
2017-06-14T04:46:42.867Z,15.56
2017-06-14T04:47:10.913Z,15.6
2017-06-14T04:47:39.222Z,15.54
2017-06-14T04:48:07.389Z,15.58
2017-06-14T04:48:35.607Z,15.52
2017-06-14T04:49:03.935Z,15.54
2017-06-14T04:49:32.281Z,15.56
2017-06-14T04:50:43.406Z,15.59
2017-06-14T04:51:11.587Z,15.59
2017-06-14T04:51:39.905Z,15.59
2017-06-14T04:52:08.201Z,15.59
2017-06-14T04:52:36.513Z,15.54
2017-06-14T04:53:04.617Z,15.54
2017-06-14T04:53:32.922Z,15.47
2017-06-14T04:54:01.091Z,15.47
2017-06-14T04:54:29.398Z,15.47
2017-06-14T04:54:57.634Z,15.52
2017-06-14T04:55:25.878Z,15.48
2017-06-14T04:56:37.097Z,15.48
2017-06-14T04:57:05.284Z,15.47
2017-06-14T04:57:33.601Z,15.47
2017-06-14T04:58:01.901Z,15.45
2017-06-14T04:58:30.090Z,15.48
2017-06-14T04:58:58.219Z,15.51
2017-06-14T04:59:26.519Z,15.45
2017-06-14T04:59:54.778Z,15.47
2017-06-14T05:00:22.900Z,15.44
2017-06-14T05:00:51.135Z,15.47
2017-06-14T05:01:19.480Z,15.45
2017-06-14T05:02:30.704Z,15.48
2017-06-14T05:02:58.987Z,15.45
2017-06-14T05:03:27.301Z,15.44
2017-06-14T05:03:55.600Z,15.44
2017-06-14T05:04:23.878Z,15.47
2017-06-14T05:04:51.907Z,15.51
2017-06-14T05:05:20.113Z,15.51
2017-06-14T05:05:48.278Z,15.48
2017-06-14T05:06:16.592Z,15.5
2017-06-14T05:06:44.920Z,15.47
2017-06-14T05:07:13.166Z,15.52
2017-06-14T05:08:24.386Z,15.51
2017-06-14T05:08:52.570Z,15.5
2017-06-14T05:09:20.698Z,15.44
2017-06-14T05:09:48.713Z,15.47
2017-06-14T05:10:16.906Z,15.48
2017-06-14T05:10:45.041Z,15.51
2017-06-14T05:11:13.249Z,15.45
2017-06-14T05:11:41.421Z,15.41
2017-06-14T05:12:09.534Z,15.43
2017-06-14T05:12:37.779Z,15.47
2017-06-14T05:13:05.939Z,15.5
2017-06-14T05:14:17.156Z,15.48
2017-06-14T05:14:45.338Z,15.45
2017-06-14T05:15:13.565Z,15.47
2017-06-14T05:15:41.860Z,15.45
2017-06-14T05:16:10.145Z,15.45
2017-06-14T05:16:38.279Z,15.47
2017-06-14T05:17:06.582Z,15.44
2017-06-14T05:17:34.857Z,15.45
2017-06-14T05:18:03.067Z,15.41
2017-06-14T05:18:31.308Z,15.4
2017-06-14T05:18:59.564Z,15.47
2017-06-14T05:20:10.880Z,15.36
2017-06-14T05:20:39.064Z,15.36
2017-06-14T05:21:07.289Z,15.36
2017-06-14T05:21:35.394Z,15.33
2017-06-14T05:22:03.518Z,15.33
2017-06-14T05:22:31.651Z,15.44
2017-06-14T05:22:59.952Z,15.4
2017-06-14T05:23:28.124Z,15.33
2017-06-14T05:23:56.341Z,15.35
2017-06-14T05:24:24.673Z,15.33
2017-06-14T05:24:52.829Z,15.4
2017-06-14T05:26:04.049Z,15.36
2017-06-14T05:26:32.332Z,15.36
2017-06-14T05:27:00.645Z,15.3
2017-06-14T05:27:28.944Z,15.4
2017-06-14T05:27:57.224Z,15.32
2017-06-14T05:28:25.169Z,15.3
2017-06-14T05:28:53.474Z,15.35
2017-06-14T05:29:21.635Z,15.33
2017-06-14T05:29:49.947Z,15.32
2017-06-14T05:30:18.277Z,15.35
2017-06-14T05:30:46.616Z,15.35
2017-06-14T05:31:57.743Z,15.38
2017-06-14T05:32:25.932Z,15.29
2017-06-14T05:32:54.249Z,15.41
2017-06-14T05:33:22.544Z,15.41
2017-06-14T05:33:50.829Z,15.38
2017-06-14T05:34:19.058Z,15.38
2017-06-14T05:34:47.172Z,15.29
2017-06-14T05:35:15.340Z,15.38
2017-06-14T05:35:43.546Z,15.4
2017-06-14T05:36:11.784Z,15.3
2017-06-14T05:36:40.129Z,15.36
2017-06-14T05:37:51.446Z,15.38
2017-06-14T05:38:19.727Z,15.35
2017-06-14T05:38:48.039Z,15.35
2017-06-14T05:39:16.243Z,15.4
2017-06-14T05:39:44.528Z,15.29
2017-06-14T05:40:12.607Z,15.27
2017-06-14T05:40:40.912Z,15.3
2017-06-14T05:41:08.990Z,15.2
2017-06-14T05:41:37.204Z,15.33
2017-06-14T05:42:05.536Z,15.27
2017-06-14T05:42:33.876Z,15.23
2017-06-14T05:43:45.095Z,15.36
2017-06-14T05:44:13.288Z,15.33
2017-06-14T05:44:41.607Z,15.29
2017-06-14T05:45:09.811Z,15.35
2017-06-14T05:45:37.999Z,15.36
2017-06-14T05:46:06.226Z,15.36
2017-06-14T05:46:34.529Z,15.27
2017-06-14T05:47:02.701Z,15.32
2017-06-14T05:47:30.822Z,15.3
2017-06-14T05:47:59.155Z,15.38
2017-06-14T05:48:27.501Z,15.3
2017-06-14T05:49:38.821Z,15.36
2017-06-14T05:50:07.005Z,15.32
2017-06-14T05:50:35.228Z,15.38
2017-06-14T05:51:03.439Z,15.33
2017-06-14T05:51:31.725Z,15.32
2017-06-14T05:51:59.951Z,15.27
2017-06-14T05:52:28.255Z,15.32
2017-06-14T05:52:56.519Z,15.36
2017-06-14T05:53:24.828Z,15.3
2017-06-14T05:53:53.156Z,15.27
2017-06-14T05:54:21.500Z,15.32
2017-06-14T05:55:32.812Z,15.29
2017-06-14T05:56:00.994Z,15.25
2017-06-14T05:56:29.125Z,15.32
2017-06-14T05:56:57.773Z,15.2
2017-06-14T05:57:26.058Z,15.2
2017-06-14T05:57:54.189Z,15.32
2017-06-14T05:58:22.402Z,15.27
2017-06-14T05:58:50.664Z,15.27
2017-06-14T05:59:18.785Z,15.27
2017-06-14T05:59:47.112Z,15.22
2017-06-14T06:00:15.449Z,15.26
2017-06-14T06:01:26.764Z,15.26
2017-06-14T06:01:54.852Z,15.29
2017-06-14T06:02:23.079Z,15.26
2017-06-14T06:02:51.091Z,15.25
2017-06-14T06:03:19.281Z,15.25
2017-06-14T06:03:47.416Z,15.25
2017-06-14T06:04:15.719Z,15.19
2017-06-14T06:04:43.983Z,15.17
2017-06-14T06:05:12.287Z,15.23
2017-06-14T06:05:40.616Z,15.2
2017-06-14T06:06:08.867Z,15.15
2017-06-14T06:07:20.182Z,15.12
2017-06-14T06:07:48.466Z,15.17
2017-06-14T06:08:16.507Z,15.12
2017-06-14T06:08:44.808Z,15.12
2017-06-14T06:09:13.089Z,15.08
2017-06-14T06:09:41.312Z,15.14
2017-06-14T06:10:09.524Z,15.12
2017-06-14T06:10:37.790Z,15.14
2017-06-14T06:11:05.908Z,15.15
2017-06-14T06:11:34.235Z,15.14
2017-06-14T06:12:02.575Z,15.12
2017-06-14T06:13:13.890Z,15.14
2017-06-14T06:13:41.983Z,15.1
2017-06-14T06:14:10.205Z,15.2
2017-06-14T06:14:38.506Z,15.1
2017-06-14T06:15:06.693Z,15.11
2017-06-14T06:15:34.826Z,15.12
2017-06-14T06:16:03.030Z,15.17
2017-06-14T06:16:31.199Z,15.1
2017-06-14T06:16:59.406Z,15.15
2017-06-14T06:17:27.643Z,15.07
2017-06-14T06:17:55.796Z,15.11
2017-06-14T06:19:07.110Z,15.15
2017-06-14T06:19:35.394Z,15.15
2017-06-14T06:20:03.709Z,15.14
2017-06-14T06:20:31.912Z,15.12
2017-06-14T06:21:00.103Z,15.08
2017-06-14T06:21:28.327Z,15.08
2017-06-14T06:21:56.631Z,15.08
2017-06-14T06:22:24.893Z,15.12
2017-06-14T06:22:53.204Z,15.17
2017-06-14T06:23:21.531Z,15.08
2017-06-14T06:23:49.876Z,15.1
2017-06-14T06:25:01.188Z,15.14
2017-06-14T06:25:29.370Z,15.15
2017-06-14T06:25:57.511Z,15.07
2017-06-14T06:26:25.712Z,15.17
2017-06-14T06:26:53.995Z,15.12
2017-06-14T06:27:22.127Z,15.1
2017-06-14T06:27:50.339Z,15.14
2017-06-14T06:28:18.502Z,15.08
2017-06-14T06:28:46.714Z,15.15
2017-06-14T06:29:15.043Z,15.11
2017-06-14T06:29:43.380Z,15.07
2017-06-14T06:30:54.700Z,15.14
2017-06-14T06:31:22.885Z,15.12
2017-06-14T06:31:51.200Z,15.14
2017-06-14T06:32:19.497Z,15.11
2017-06-14T06:32:47.780Z,15.08
2017-06-14T06:33:16.004Z,15.11
2017-06-14T06:33:44.307Z,15.08
2017-06-14T06:34:12.568Z,15.12
2017-06-14T06:34:40.873Z,15.15
2017-06-14T06:35:09.106Z,15.1
2017-06-14T06:35:37.354Z,15.1
2017-06-14T06:36:48.674Z,15.19
2017-06-14T06:37:16.858Z,15.2
2017-06-14T06:37:45.175Z,15.22
2017-06-14T06:38:13.473Z,15.19
2017-06-14T06:38:41.664Z,15.2
2017-06-14T06:39:09.700Z,15.2
2017-06-14T06:39:37.907Z,15.29
2017-06-14T06:40:06.072Z,15.23
2017-06-14T06:40:34.190Z,15.26
2017-06-14T06:41:02.519Z,15.26
2017-06-14T06:41:30.857Z,15.23
2017-06-14T06:42:41.983Z,15.26
2017-06-14T06:43:10.168Z,15.22
2017-06-14T06:43:38.487Z,15.25
2017-06-14T06:44:06.694Z,15.23
2017-06-14T06:44:34.884Z,15.27
2017-06-14T06:45:03.016Z,15.2
2017-06-14T06:45:31.318Z,15.26
2017-06-14T06:45:59.577Z,15.23
2017-06-14T06:46:27.700Z,15.26
2017-06-14T06:46:55.935Z,15.25
2017-06-14T06:47:24.200Z,15.25
2017-06-14T06:48:35.420Z,15.26
2017-06-14T06:49:03.602Z,15.22
2017-06-14T06:49:31.829Z,15.23
2017-06-14T06:50:00.125Z,15.23
2017-06-14T06:50:28.215Z,15.15
2017-06-14T06:50:56.348Z,15.19
2017-06-14T06:51:24.560Z,15.2
2017-06-14T06:51:52.732Z,15.17
2017-06-14T06:52:20.850Z,15.19
2017-06-14T06:52:49.081Z,15.22
2017-06-14T06:53:17.328Z,15.23
2017-06-14T06:54:28.547Z,15.19
2017-06-14T06:54:56.728Z,15.22
2017-06-14T06:55:25.043Z,15.15
2017-06-14T06:55:53.146Z,15.11
2017-06-14T06:56:21.241Z,15.22